createdAt,value
2024-01-01T00:00:24.421Z,19.95
2024-01-01T00:00:55.956Z,19.96
2024-01-01T00:01:27.600Z,19.94
2024-01-01T00:01:59.173Z,19.93
2024-01-01T00:02:30.634Z,19.97
2024-01-01T00:03:02.095Z,19.95
2024-01-01T00:03:33.692Z,19.92
2024-01-01T00:04:05.220Z,19.95
2024-01-01T00:04:36.746Z,19.95
2024-01-01T00:05:08.238Z,19.95
2024-01-01T00:05:39.752Z,19.96
2024-01-01T00:06:11.306Z,19.99
2024-01-01T00:06:42.863Z,19.99
2024-01-01T00:07:14.398Z,19.97
2024-01-01T00:07:45.902Z,19.97
2024-01-01T00:08:17.399Z,19.98
2024-01-01T00:08:48.932Z,19.96
2024-01-01T00:09:20.438Z,19.96
2024-01-01T00:09:51.876Z,19.97
2024-01-01T00:10:23.320Z,19.95
2024-01-01T00:10:54.845Z,19.95
2024-01-01T00:11:26.326Z,19.93
2024-01-01T00:11:57.811Z,19.97
2024-01-01T00:12:29.314Z,19.95
2024-01-01T00:13:00.755Z,19.96
2024-01-01T00:13:32.288Z,19.99
2024-01-01T00:14:03.758Z,19.99
2024-01-01T00:14:35.272Z,20.00
2024-01-01T00:15:06.709Z,20.00
2024-01-01T00:15:38.352Z,19.99
2024-01-01T00:16:09.887Z,19.99
2024-01-01T00:16:41.517Z,19.99
2024-01-01T00:17:13.053Z,20.02
2024-01-01T00:17:44.681Z,20.00
2024-01-01T00:18:16.244Z,20.00
2024-01-01T00:18:47.822Z,20.01
2024-01-01T00:19:19.429Z,19.99
2024-01-01T00:19:51.040Z,19.99
2024-01-01T00:20:22.599Z,19.99
2024-01-01T00:20:54.169Z,19.98
2024-01-01T00:21:25.914Z,19.98
2024-01-01T00:21:57.543Z,20.01
2024-01-01T00:22:29.080Z,20.00
2024-01-01T00:23:00.651Z,20.01
2024-01-01T00:23:32.209Z,20.02
2024-01-01T00:24:03.815Z,20.04
2024-01-01T00:24:35.390Z,20.02
2024-01-01T00:25:09.466Z,20.01
2024-01-01T00:25:41.267Z,20.03
2024-01-01T00:26:12.875Z,20.04
2024-01-01T00:26:44.528Z,20.01
2024-01-01T00:27:16.008Z,20.02
2024-01-01T00:27:47.508Z,20.03
2024-01-01T00:28:18.992Z,20.04
2024-01-01T00:28:50.525Z,20.01
2024-01-01T00:29:27.755Z,20.00
2024-01-01T00:30:02.671Z,20.00
2024-01-01T00:30:34.233Z,19.99
2024-01-01T00:31:05.678Z,19.99
2024-01-01T00:31:37.155Z,20.01
2024-01-01T00:32:08.689Z,20.01
2024-01-01T00:32:40.309Z,20.01
2024-01-01T00:33:12.014Z,20.02
2024-01-01T00:33:43.584Z,20.04
2024-01-01T00:34:15.174Z,20.04
2024-01-01T00:34:46.684Z,20.03
2024-01-01T00:35:18.231Z,20.05
2024-01-01T00:35:49.795Z,20.05
2024-01-01T00:36:21.362Z,20.06
2024-01-01T00:36:52.810Z,20.05
2024-01-01T00:37:24.267Z,20.04
2024-01-01T00:37:55.731Z,20.03
2024-01-01T00:38:27.195Z,20.05
2024-01-01T00:38:58.818Z,20.05
2024-01-01T00:39:30.272Z,20.05
2024-01-01T00:40:33.227Z,20.08
2024-01-01T00:41:04.806Z,20.10
2024-01-01T00:41:36.290Z,20.10
2024-01-01T00:42:07.742Z,20.08
2024-01-01T00:42:39.229Z,20.09
2024-01-01T00:43:10.742Z,20.11
2024-01-01T00:43:42.380Z,20.09
2024-01-01T00:44:13.914Z,20.11
2024-01-01T00:44:45.377Z,20.09
2024-01-01T00:45:16.891Z,20.08
2024-01-01T00:45:50.058Z,20.08
2024-01-01T00:46:21.964Z,20.09
2024-01-01T00:46:53.502Z,20.05
2024-01-01T00:47:25.150Z,20.08
2024-01-01T00:47:56.713Z,20.09
2024-01-01T00:48:28.347Z,20.11
2024-01-01T00:49:00.138Z,20.10
2024-01-01T00:49:31.720Z,20.12
2024-01-01T00:50:03.229Z,20.11
2024-01-01T00:50:34.744Z,20.11
2024-01-01T00:51:06.197Z,20.12
2024-01-01T00:51:37.609Z,20.12
2024-01-01T00:52:09.034Z,20.10
2024-01-01T00:52:40.690Z,20.10
2024-01-01T00:53:12.345Z,20.10
2024-01-01T00:53:43.927Z,20.10
2024-01-01T00:54:15.441Z,20.09
2024-01-01T00:54:46.913Z,20.08
2024-01-01T00:55:19.966Z,20.09
2024-01-01T00:55:52.746Z,20.11
2024-01-01T00:56:24.235Z,20.08
2024-01-01T00:56:55.719Z,20.07
2024-01-01T00:57:27.247Z,20.08
2024-01-01T00:57:58.788Z,20.05
2024-01-01T00:58:30.321Z,20.04
2024-01-01T00:59:01.911Z,20.05
2024-01-01T00:59:33.420Z,20.05
2024-01-01T01:00:04.914Z,20.06
2024-01-01T01:00:36.409Z,20.02
2024-01-01T01:01:07.954Z,20.04
2024-01-01T01:01:39.501Z,20.05
2024-01-01T01:02:11.094Z,20.04
2024-01-01T01:02:42.703Z,20.03
2024-01-01T01:03:14.180Z,20.02
2024-01-01T01:03:45.691Z,20.02
2024-01-01T01:04:17.244Z,20.02
2024-01-01T01:04:59.326Z,20.06
2024-01-01T01:05:37.335Z,20.04
2024-01-01T01:06:14.759Z,20.03
2024-01-01T01:06:52.539Z,20.02
2024-01-01T01:07:24.085Z,20.08
2024-01-01T01:07:55.577Z,20.07
2024-01-01T01:08:27.049Z,20.05
2024-01-01T01:08:58.547Z,20.04
2024-01-01T01:09:30.056Z,20.06
2024-01-01T01:10:01.644Z,20.06
2024-01-01T01:10:33.192Z,20.05
2024-01-01T01:11:04.831Z,20.05
2024-01-01T01:11:36.452Z,20.10
2024-01-01T01:12:07.972Z,20.08
2024-01-01T01:12:39.422Z,20.07
2024-01-01T01:13:10.880Z,20.09
2024-01-01T01:13:42.394Z,20.10
2024-01-01T01:14:13.946Z,20.08
2024-01-01T01:14:45.879Z,20.08
2024-01-01T01:15:17.426Z,20.10
2024-01-01T01:15:48.905Z,20.12
2024-01-01T01:16:20.603Z,20.11
2024-01-01T01:16:52.093Z,20.11
2024-01-01T01:17:23.676Z,20.09
2024-01-01T01:17:55.341Z,20.09
2024-01-01T01:18:26.974Z,20.11
2024-01-01T01:18:58.856Z,20.08
2024-01-01T01:19:30.496Z,20.09
2024-01-01T01:20:02.444Z,20.08
2024-01-01T01:20:34.385Z,20.08
2024-01-01T01:21:05.949Z,20.05
2024-01-01T01:21:37.428Z,20.06
2024-01-01T01:22:08.904Z,20.07
2024-01-01T01:22:40.392Z,20.07
2024-01-01T01:23:11.942Z,20.09
2024-01-01T01:23:43.557Z,20.09
2024-01-01T01:24:15.131Z,20.09
2024-01-01T01:24:46.668Z,20.10
2024-01-01T01:25:18.364Z,20.11
2024-01-01T01:25:49.979Z,20.10
2024-01-01T01:26:21.553Z,20.11
2024-01-01T01:26:53.311Z,20.11
2024-01-01T01:27:24.822Z,20.10
2024-01-01T01:27:56.335Z,20.08
2024-01-01T01:28:27.800Z,20.11
2024-01-01T01:28:59.368Z,20.08
2024-01-01T01:29:30.975Z,20.10
2024-01-01T01:30:02.503Z,20.08
2024-01-01T01:30:34.056Z,20.06
2024-01-01T01:31:05.633Z,20.08
2024-01-01T01:31:37.209Z,20.06
2024-01-01T01:32:08.754Z,20.06
2024-01-01T01:32:40.398Z,20.07
2024-01-01T01:33:12.021Z,20.10
2024-01-01T01:33:43.636Z,20.08
2024-01-01T01:34:15.111Z,20.10
2024-01-01T01:34:46.851Z,20.07
2024-01-01T01:35:18.393Z,20.08
2024-01-01T01:35:49.914Z,20.07
2024-01-01T01:36:21.391Z,20.06
2024-01-01T01:36:52.881Z,20.05
2024-01-01T01:37:24.306Z,20.05
2024-01-01T01:37:55.767Z,20.04
2024-01-01T01:38:27.239Z,20.07
2024-01-01T01:38:58.765Z,20.05
2024-01-01T01:39:30.267Z,20.07
2024-01-01T01:40:01.785Z,20.04
2024-01-01T01:40:33.290Z,20.08
2024-01-01T01:41:04.839Z,20.06
2024-01-01T01:41:36.304Z,20.06
2024-01-01T01:42:07.766Z,20.06
2024-01-01T01:42:39.323Z,20.08
2024-01-01T01:43:10.767Z,20.07
2024-01-01T01:43:42.218Z,20.07
2024-01-01T01:44:13.812Z,20.08
2024-01-01T01:44:45.341Z,20.09
2024-01-01T01:45:16.867Z,20.10
2024-01-01T01:45:48.335Z,20.09
2024-01-01T01:46:19.766Z,20.08
2024-01-01T01:46:52.735Z,20.09
2024-01-01T01:47:24.918Z,20.10
2024-01-01T01:47:56.623Z,20.10
2024-01-01T01:48:28.229Z,20.09
2024-01-01T01:48:59.854Z,20.08
2024-01-01T01:49:31.435Z,20.09
2024-01-01T01:50:02.970Z,20.09
2024-01-01T01:50:34.487Z,20.06
2024-01-01T01:51:05.937Z,20.06
2024-01-01T01:51:37.425Z,20.12
2024-01-01T01:52:08.904Z,20.15
2024-01-01T01:52:40.376Z,20.18
2024-01-01T01:53:11.923Z,20.18
2024-01-01T01:53:43.415Z,20.20
2024-01-01T01:54:14.908Z,20.24
2024-01-01T01:54:46.446Z,20.22
2024-01-01T01:55:17.868Z,20.20
2024-01-01T01:55:49.376Z,20.20
2024-01-01T01:56:20.831Z,20.21
2024-01-01T01:56:52.291Z,20.24
2024-01-01T01:57:23.747Z,20.24
2024-01-01T01:57:55.294Z,20.25
2024-01-01T01:58:26.814Z,20.27
2024-01-01T01:58:58.299Z,20.24
2024-01-01T01:59:29.735Z,20.24
2024-01-01T02:00:01.247Z,20.25
2024-01-01T02:00:32.711Z,20.30
2024-01-01T02:01:04.209Z,20.30
2024-01-01T02:01:35.754Z,20.29
2024-01-01T02:02:07.325Z,20.31
2024-01-01T02:02:38.945Z,20.34
2024-01-01T02:03:10.429Z,20.33
2024-01-01T02:03:41.929Z,20.31
2024-01-01T02:04:13.457Z,20.32
2024-01-01T02:04:44.952Z,20.33
2024-01-01T02:05:16.519Z,20.28
2024-01-01T02:05:48.188Z,20.27
2024-01-01T02:06:19.800Z,20.27
2024-01-01T02:06:51.289Z,20.26
2024-01-01T02:07:22.723Z,20.26
2024-01-01T02:07:54.281Z,20.25
2024-01-01T02:08:25.940Z,20.25
2024-01-01T02:08:57.423Z,20.23
2024-01-01T02:09:28.847Z,20.22
2024-01-01T02:10:00.412Z,20.22
2024-01-01T02:10:32.247Z,20.21
2024-01-01T02:11:03.883Z,20.21
2024-01-01T02:11:35.574Z,20.21
2024-01-01T02:12:07.247Z,20.22
2024-01-01T02:12:38.792Z,20.19
2024-01-01T02:13:10.245Z,20.19
2024-01-01T02:13:41.776Z,20.22
2024-01-01T02:14:13.417Z,20.21
2024-01-01T02:14:45.061Z,20.20
2024-01-01T02:15:16.692Z,20.18
2024-01-01T02:15:48.136Z,20.21
2024-01-01T02:16:19.677Z,20.20
2024-01-01T02:16:51.202Z,20.21
2024-01-01T02:17:22.837Z,20.20
2024-01-01T02:17:54.396Z,20.18
2024-01-01T02:18:26.024Z,20.19
2024-01-01T02:18:57.656Z,20.20
2024-01-01T02:19:29.466Z,20.19
2024-01-01T02:20:01.964Z,20.21
2024-01-01T02:20:39.204Z,20.18
2024-01-01T02:21:10.688Z,20.17
2024-01-01T02:21:42.209Z,20.17
2024-01-01T02:22:13.726Z,20.14
2024-01-01T02:22:45.248Z,20.13
2024-01-01T02:23:16.897Z,20.12
2024-01-01T02:23:48.553Z,20.10
2024-01-01T02:24:20.074Z,20.13
2024-01-01T02:24:51.550Z,20.12
2024-01-01T02:25:23.046Z,20.13
2024-01-01T02:25:54.747Z,20.13
2024-01-01T02:26:26.448Z,20.12
2024-01-01T02:26:57.890Z,20.12
2024-01-01T02:27:29.374Z,20.12
2024-01-01T02:28:00.813Z,20.09
2024-01-01T02:28:32.329Z,20.09
2024-01-01T02:29:03.895Z,20.11
2024-01-01T02:29:35.476Z,20.14
2024-01-01T02:30:06.949Z,20.15
2024-01-01T02:30:38.678Z,20.13
2024-01-01T02:31:10.129Z,20.12
2024-01-01T02:31:41.820Z,20.07
2024-01-01T02:32:13.465Z,20.10
2024-01-01T02:32:45.123Z,20.10
2024-01-01T02:33:16.712Z,20.10
2024-01-01T02:33:48.277Z,20.07
2024-01-01T02:34:19.702Z,20.09
2024-01-01T02:34:51.193Z,20.06
2024-01-01T02:35:22.733Z,20.08
2024-01-01T02:35:54.213Z,20.06
2024-01-01T02:36:25.641Z,20.06
2024-01-01T02:36:57.124Z,20.07
2024-01-01T02:37:28.611Z,20.08
2024-01-01T02:38:00.179Z,20.07
2024-01-01T02:38:31.657Z,20.10
2024-01-01T02:39:03.179Z,20.11
2024-01-01T02:39:34.625Z,20.11
2024-01-01T02:40:06.146Z,20.08
2024-01-01T02:40:37.643Z,20.07
2024-01-01T02:41:09.272Z,20.08
2024-01-01T02:41:40.763Z,20.06
2024-01-01T02:42:12.226Z,20.08
2024-01-01T02:42:43.710Z,20.07
2024-01-01T02:43:15.205Z,20.07
2024-01-01T02:43:46.705Z,20.08
2024-01-01T02:44:18.254Z,20.07
2024-01-01T02:44:49.745Z,20.07
2024-01-01T02:45:21.209Z,20.07
2024-01-01T02:45:52.728Z,20.07
2024-01-01T02:46:24.200Z,20.04
2024-01-01T02:46:55.807Z,20.05
2024-01-01T02:47:27.365Z,20.07
2024-01-01T02:47:58.910Z,20.07
2024-01-01T02:48:30.496Z,20.07
2024-01-01T02:49:02.082Z,20.11
2024-01-01T02:49:33.697Z,20.10
2024-01-01T02:50:05.187Z,20.12
2024-01-01T02:50:36.708Z,20.09
2024-01-01T02:51:08.178Z,20.08
2024-01-01T02:51:39.658Z,20.10
2024-01-01T02:52:11.088Z,20.07
2024-01-01T02:52:42.676Z,20.07
2024-01-01T02:53:14.332Z,20.05
2024-01-01T02:53:45.822Z,20.04
2024-01-01T02:54:17.366Z,20.02
2024-01-01T02:54:48.844Z,20.00
2024-01-01T02:55:20.329Z,20.02
2024-01-01T02:55:51.860Z,20.05
2024-01-01T02:56:23.429Z,20.03
2024-01-01T02:56:54.989Z,20.01
2024-01-01T02:57:26.509Z,20.03
2024-01-01T02:57:58.036Z,20.05
2024-01-01T02:58:29.534Z,20.04
2024-01-01T02:59:01.175Z,20.04
2024-01-01T02:59:32.630Z,20.02
2024-01-01T03:00:04.197Z,20.02
2024-01-01T03:00:35.822Z,20.04
2024-01-01T03:01:07.492Z,20.04
2024-01-01T03:01:39.055Z,20.04
2024-01-01T03:02:10.734Z,20.02
2024-01-01T03:02:42.475Z,20.00
2024-01-01T03:03:14.007Z,19.99
2024-01-01T03:03:45.642Z,19.98
2024-01-01T03:04:17.143Z,19.99
2024-01-01T03:04:48.898Z,19.99
2024-01-01T03:05:20.856Z,20.01
2024-01-01T03:05:52.403Z,19.99
2024-01-01T03:06:23.968Z,20.00
2024-01-01T03:06:55.470Z,20.01
2024-01-01T03:07:26.993Z,20.01
2024-01-01T03:07:58.619Z,20.02
2024-01-01T03:08:30.206Z,20.03
2024-01-01T03:09:01.683Z,20.01
2024-01-01T03:09:33.101Z,19.99
2024-01-01T03:10:04.638Z,19.96
2024-01-01T03:10:36.105Z,19.97
2024-01-01T03:11:07.710Z,19.96
2024-01-01T03:11:39.168Z,19.94
2024-01-01T03:12:10.698Z,19.93
2024-01-01T03:12:42.205Z,19.93
2024-01-01T03:13:13.751Z,19.92
2024-01-01T03:13:45.241Z,19.91
2024-01-01T03:14:16.762Z,19.90
2024-01-01T03:14:48.270Z,19.89
2024-01-01T03:15:19.766Z,19.88
2024-01-01T03:15:51.198Z,19.87
2024-01-01T03:16:22.668Z,19.86
2024-01-01T03:16:54.205Z,19.87
2024-01-01T03:17:25.812Z,19.86
2024-01-01T03:17:57.464Z,19.85
2024-01-01T03:18:29.201Z,19.86
2024-01-01T03:19:04.527Z,19.85
2024-01-01T03:19:36.493Z,19.85
2024-01-01T03:20:08.057Z,19.87
2024-01-01T03:20:39.551Z,19.85
2024-01-01T03:21:11.121Z,19.85
2024-01-01T03:21:42.598Z,19.85
2024-01-01T03:22:14.103Z,19.86
2024-01-01T03:22:45.667Z,19.85
2024-01-01T03:23:17.217Z,19.84
2024-01-01T03:23:48.686Z,19.87
2024-01-01T03:24:20.149Z,19.84
2024-01-01T03:24:51.719Z,19.83
2024-01-01T03:25:23.223Z,19.88
2024-01-01T03:25:54.685Z,19.89
2024-01-01T03:26:26.176Z,19.90
2024-01-01T03:26:57.738Z,19.90
2024-01-01T03:27:29.188Z,19.90
2024-01-01T03:28:00.637Z,19.89
2024-01-01T03:28:32.198Z,19.91
2024-01-01T03:29:03.789Z,19.91
2024-01-01T03:29:35.228Z,19.94
2024-01-01T03:30:06.760Z,19.95
2024-01-01T03:30:38.345Z,19.95
2024-01-01T03:31:09.912Z,19.95
2024-01-01T03:31:41.501Z,19.98
2024-01-01T03:32:13.232Z,19.95
2024-01-01T03:32:44.902Z,19.97
2024-01-01T03:33:16.449Z,19.97
2024-01-01T03:33:47.999Z,19.99
2024-01-01T03:34:19.403Z,19.98
2024-01-01T03:34:50.967Z,19.99
2024-01-01T03:35:22.496Z,19.98
2024-01-01T03:35:54.111Z,19.98
2024-01-01T03:36:25.637Z,19.99
2024-01-01T03:36:57.145Z,19.96
2024-01-01T03:37:28.605Z,19.99
2024-01-01T03:38:00.158Z,20.01
2024-01-01T03:38:31.704Z,20.00
2024-01-01T03:39:03.139Z,19.99
2024-01-01T03:39:34.629Z,19.99
2024-01-01T03:40:06.119Z,20.00
2024-01-01T03:40:37.809Z,19.99
2024-01-01T03:41:09.484Z,19.99
2024-01-01T03:41:41.030Z,19.98
2024-01-01T03:42:12.679Z,19.97
2024-01-01T03:42:44.143Z,19.98
2024-01-01T03:43:15.589Z,19.96
2024-01-01T03:43:47.035Z,19.95
2024-01-01T03:44:18.652Z,19.95
2024-01-01T03:44:50.135Z,19.96
2024-01-01T03:45:21.655Z,19.93
2024-01-01T03:45:53.184Z,19.96
2024-01-01T03:46:24.710Z,19.97
2024-01-01T03:46:56.245Z,19.98
2024-01-01T03:47:27.902Z,19.96
2024-01-01T03:47:59.532Z,19.98
2024-01-01T03:48:31.090Z,19.96
2024-01-01T03:49:02.643Z,19.99
2024-01-01T03:49:34.246Z,19.99
2024-01-01T03:50:05.813Z,19.98
2024-01-01T03:50:37.353Z,19.98
2024-01-01T03:51:08.832Z,19.98
2024-01-01T03:51:40.321Z,19.96
2024-01-01T03:52:11.749Z,19.95
2024-01-01T03:52:43.230Z,19.95
2024-01-01T03:53:14.926Z,19.94
2024-01-01T03:53:46.468Z,19.93
2024-01-01T03:54:17.960Z,19.91
2024-01-01T03:54:49.417Z,19.90
2024-01-01T03:55:20.873Z,19.90
2024-01-01T03:55:52.365Z,19.92
2024-01-01T03:56:23.834Z,19.93
2024-01-01T03:56:55.315Z,19.92
2024-01-01T03:57:26.747Z,19.95
2024-01-01T03:57:58.253Z,19.95
2024-01-01T03:58:29.708Z,19.93
2024-01-01T03:59:01.293Z,19.92
2024-01-01T03:59:32.845Z,19.93
2024-01-01T04:00:06.418Z,19.93
2024-01-01T04:00:39.634Z,19.94
2024-01-01T04:01:11.107Z,19.95
2024-01-01T04:01:42.698Z,19.95
2024-01-01T04:02:14.415Z,19.95
2024-01-01T04:02:46.004Z,19.92
2024-01-01T04:03:17.554Z,19.92
2024-01-01T04:03:49.151Z,19.93
2024-01-01T04:04:20.691Z,19.93
2024-01-01T04:04:52.234Z,19.94
2024-01-01T04:05:23.858Z,19.96
2024-01-01T04:05:57.216Z,19.94
2024-01-01T04:06:30.175Z,19.98
2024-01-01T04:07:01.644Z,19.96
2024-01-01T04:07:33.082Z,19.95
2024-01-01T04:08:04.922Z,19.94
2024-01-01T04:08:36.624Z,19.94
2024-01-01T04:09:08.173Z,19.95
2024-01-01T04:09:39.609Z,19.93
2024-01-01T04:10:11.244Z,19.93
2024-01-01T04:10:42.768Z,19.92
2024-01-01T04:11:14.277Z,19.92
2024-01-01T04:11:45.890Z,19.92
2024-01-01T04:12:17.365Z,19.93
2024-01-01T04:12:48.841Z,19.96
2024-01-01T04:13:20.397Z,19.97
2024-01-01T04:13:52.066Z,19.99
2024-01-01T04:14:23.640Z,19.98
2024-01-01T04:14:55.105Z,20.01
2024-01-01T04:15:26.608Z,19.99
2024-01-01T04:15:58.067Z,20.00
2024-01-01T04:16:29.556Z,20.01
2024-01-01T04:17:01.153Z,20.01
2024-01-01T04:17:32.701Z,20.01
2024-01-01T04:18:04.486Z,20.00
2024-01-01T04:18:36.299Z,20.02
2024-01-01T04:19:07.878Z,20.02
2024-01-01T04:19:39.401Z,20.02
2024-01-01T04:20:10.929Z,19.98
2024-01-01T04:20:42.415Z,20.02
2024-01-01T04:21:13.874Z,19.98
2024-01-01T04:21:45.349Z,19.99
2024-01-01T04:22:16.907Z,20.00
2024-01-01T04:22:48.481Z,19.99
2024-01-01T04:23:20.046Z,19.96
2024-01-01T04:23:51.558Z,19.97
2024-01-01T04:24:23.028Z,19.96
2024-01-01T04:24:54.465Z,19.96
2024-01-01T04:25:25.967Z,19.98
2024-01-01T04:25:57.428Z,19.97
2024-01-01T04:26:28.859Z,19.98
2024-01-01T04:27:00.406Z,20.02
2024-01-01T04:27:31.881Z,20.02
2024-01-01T04:28:03.753Z,20.01
2024-01-01T04:28:35.581Z,20.00
2024-01-01T04:29:07.174Z,19.99
2024-01-01T04:29:38.644Z,20.01
2024-01-01T04:30:10.185Z,19.99
2024-01-01T04:30:41.847Z,19.99
2024-01-01T04:31:13.356Z,20.00
2024-01-01T04:31:44.857Z,20.01
2024-01-01T04:32:16.492Z,20.00
2024-01-01T04:32:48.341Z,20.00
2024-01-01T04:33:19.931Z,19.98
2024-01-01T04:33:51.555Z,19.97
2024-01-01T04:34:23.076Z,19.97
2024-01-01T04:34:54.540Z,19.97
2024-01-01T04:35:25.993Z,19.99
2024-01-01T04:35:57.511Z,19.96
2024-01-01T04:36:29.072Z,19.97
2024-01-01T04:37:00.553Z,19.99
2024-01-01T04:37:32.017Z,19.96
2024-01-01T04:38:03.831Z,19.95
2024-01-01T04:38:35.487Z,19.98
2024-01-01T04:39:06.995Z,19.98
2024-01-01T04:39:38.428Z,20.00
2024-01-01T04:40:09.935Z,19.97
2024-01-01T04:40:41.492Z,19.99
2024-01-01T04:41:13.140Z,20.02
2024-01-01T04:41:44.809Z,20.00
2024-01-01T04:42:16.342Z,19.99
2024-01-01T04:42:47.787Z,19.99
2024-01-01T04:43:19.241Z,19.98
2024-01-01T04:43:50.702Z,19.98
2024-01-01T04:44:22.234Z,19.98
2024-01-01T04:44:53.764Z,19.99
2024-01-01T04:45:25.236Z,19.99
2024-01-01T04:45:56.756Z,19.99
2024-01-01T04:46:28.286Z,20.00
2024-01-01T04:46:59.849Z,20.01
2024-01-01T04:47:31.388Z,20.02
2024-01-01T04:48:03.066Z,20.03
2024-01-01T04:48:34.756Z,20.02
2024-01-01T04:49:06.398Z,20.03
2024-01-01T04:49:37.928Z,20.04
2024-01-01T04:50:09.499Z,20.02
2024-01-01T04:50:41.149Z,20.03
2024-01-01T04:51:12.597Z,20.02
2024-01-01T04:51:44.056Z,20.05
2024-01-01T04:52:15.534Z,20.02
2024-01-01T04:52:47.031Z,20.03
2024-01-01T04:53:18.658Z,20.04
2024-01-01T04:53:50.189Z,20.03
2024-01-01T04:54:21.604Z,20.04
2024-01-01T04:54:53.103Z,20.04
2024-01-01T04:55:24.612Z,20.02
2024-01-01T04:55:56.124Z,20.02
2024-01-01T04:56:27.632Z,20.01
2024-01-01T04:56:59.079Z,20.03
2024-01-01T04:57:30.573Z,20.03
2024-01-01T04:58:02.145Z,20.03
2024-01-01T04:58:33.760Z,20.00
2024-01-01T04:59:05.241Z,20.02
2024-01-01T04:59:36.729Z,20.02
2024-01-01T05:00:08.191Z,20.02
2024-01-01T05:00:39.817Z,20.04
2024-01-01T05:01:11.411Z,20.05
2024-01-01T05:01:42.896Z,20.01
2024-01-01T05:02:14.443Z,20.04
2024-01-01T05:02:45.922Z,20.03
2024-01-01T05:03:17.405Z,19.99
2024-01-01T05:03:48.958Z,19.99
2024-01-01T05:04:20.589Z,19.97
2024-01-01T05:04:52.154Z,19.97
2024-01-01T05:05:23.611Z,20.00
2024-01-01T05:05:55.080Z,20.01
2024-01-01T05:06:26.796Z,20.02
2024-01-01T05:06:58.273Z,20.02
2024-01-01T05:07:29.705Z,20.03
2024-01-01T05:08:01.280Z,20.03
2024-01-01T05:08:32.766Z,20.02
2024-01-01T05:09:04.291Z,20.02
2024-01-01T05:09:35.781Z,20.03
2024-01-01T05:10:07.312Z,20.01
2024-01-01T05:10:38.789Z,20.04
2024-01-01T05:11:10.303Z,20.01
2024-01-01T05:11:41.804Z,20.01
2024-01-01T05:12:13.274Z,20.03
2024-01-01T05:12:44.723Z,20.00
2024-01-01T05:13:16.246Z,19.98
2024-01-01T05:13:47.755Z,20.04
2024-01-01T05:14:19.269Z,20.04
2024-01-01T05:14:50.801Z,20.03
2024-01-01T05:15:22.320Z,20.03
2024-01-01T05:15:53.772Z,20.04
2024-01-01T05:16:25.235Z,20.02
2024-01-01T05:16:56.695Z,20.03
2024-01-01T05:17:28.259Z,20.04
2024-01-01T05:17:59.885Z,20.01
2024-01-01T05:18:31.565Z,20.03
2024-01-01T05:19:03.112Z,20.06
2024-01-01T05:19:34.598Z,20.03
2024-01-01T05:20:06.182Z,20.02
2024-01-01T05:20:37.673Z,20.03
2024-01-01T05:21:09.113Z,20.00
2024-01-01T05:21:40.589Z,20.03
2024-01-01T05:22:12.121Z,20.05
2024-01-01T05:22:43.643Z,20.04
2024-01-01T05:23:15.219Z,20.06
2024-01-01T05:23:46.780Z,20.07
2024-01-01T05:24:18.213Z,20.06
2024-01-01T05:24:49.628Z,20.08
2024-01-01T05:25:21.082Z,20.05
2024-01-01T05:25:52.620Z,20.06
2024-01-01T05:26:24.108Z,20.07
2024-01-01T05:26:55.577Z,20.07
2024-01-01T05:27:27.125Z,20.09
2024-01-01T05:27:58.623Z,20.08
2024-01-01T05:28:30.151Z,20.10
2024-01-01T05:29:01.650Z,20.06
2024-01-01T05:29:33.224Z,20.05
2024-01-01T05:30:04.737Z,20.04
2024-01-01T05:30:36.335Z,20.04
2024-01-01T05:31:07.823Z,20.07
2024-01-01T05:31:39.296Z,20.06
2024-01-01T05:32:11.090Z,20.04
2024-01-01T05:32:42.777Z,20.04
2024-01-01T05:33:14.359Z,20.02
2024-01-01T05:33:45.948Z,20.03
2024-01-01T05:34:17.480Z,20.00
2024-01-01T05:34:49.024Z,20.01
2024-01-01T05:35:20.651Z,20.01
2024-01-01T05:35:52.232Z,20.03
2024-01-01T05:36:23.783Z,20.02
2024-01-01T05:36:55.268Z,19.99
2024-01-01T05:37:26.771Z,20.00
2024-01-01T05:37:58.291Z,20.00
2024-01-01T05:38:29.770Z,19.97
2024-01-01T05:39:01.261Z,20.00
2024-01-01T05:39:32.695Z,20.01
2024-01-01T05:40:04.204Z,20.02
2024-01-01T05:40:35.687Z,20.01
2024-01-01T05:41:08.435Z,20.00
2024-01-01T05:41:39.941Z,20.02
2024-01-01T05:42:11.469Z,20.03
2024-01-01T05:42:42.953Z,20.05
2024-01-01T05:43:14.426Z,20.05
2024-01-01T05:43:45.896Z,20.06
2024-01-01T05:44:17.444Z,20.06
2024-01-01T05:44:48.907Z,20.05
2024-01-01T05:45:20.421Z,20.05
2024-01-01T05:45:51.881Z,20.04
2024-01-01T05:46:23.579Z,20.03
2024-01-01T05:46:55.164Z,20.03
2024-01-01T05:47:26.645Z,20.08
2024-01-01T05:47:58.244Z,20.05
2024-01-01T05:48:36.478Z,20.02
2024-01-01T05:49:11.659Z,20.01
2024-01-01T05:49:43.288Z,20.03
2024-01-01T05:50:14.862Z,20.00
2024-01-01T05:50:46.466Z,20.03
2024-01-01T05:51:18.008Z,20.01
2024-01-01T05:51:49.518Z,20.01
2024-01-01T05:52:20.964Z,20.00
2024-01-01T05:52:52.449Z,19.99
2024-01-01T05:53:23.947Z,19.99
2024-01-01T05:53:55.492Z,19.97
2024-01-01T05:54:27.081Z,20.00
2024-01-01T05:54:58.553Z,19.98
2024-01-01T05:55:30.094Z,19.98
2024-01-01T05:56:01.640Z,19.97
2024-01-01T05:56:33.110Z,19.97
2024-01-01T05:57:04.563Z,19.95
2024-01-01T05:57:36.051Z,19.96
2024-01-01T05:58:07.563Z,19.95
2024-01-01T05:58:39.134Z,19.95
2024-01-01T05:59:10.739Z,19.96
2024-01-01T05:59:42.234Z,19.97
2024-01-01T06:00:13.745Z,19.96
2024-01-01T06:00:45.362Z,19.97
2024-01-01T06:01:16.856Z,19.98
2024-01-01T06:01:48.355Z,20.00
2024-01-01T06:02:19.815Z,19.99
2024-01-01T06:02:51.323Z,19.98
2024-01-01T06:03:22.852Z,20.00
2024-01-01T06:03:54.367Z,20.00
2024-01-01T06:04:25.848Z,19.98
2024-01-01T06:04:57.462Z,19.99
2024-01-01T06:05:29.103Z,20.01
2024-01-01T06:06:00.745Z,20.02
2024-01-01T06:06:32.318Z,20.00
2024-01-01T06:07:03.769Z,20.00
2024-01-01T06:07:35.331Z,20.02
2024-01-01T06:08:07.047Z,20.02
2024-01-01T06:08:38.779Z,20.00
2024-01-01T06:09:10.354Z,20.03
2024-01-01T06:09:43.771Z,20.03
2024-01-01T06:10:15.235Z,20.01
2024-01-01T06:10:46.798Z,20.02
2024-01-01T06:11:18.361Z,20.02
2024-01-01T06:11:51.364Z,20.04
2024-01-01T06:12:23.182Z,20.04
2024-01-01T06:12:54.856Z,20.05
2024-01-01T06:13:26.418Z,20.06
2024-01-01T06:13:58.146Z,20.09
2024-01-01T06:14:29.694Z,20.05
2024-01-01T06:15:01.303Z,20.06
2024-01-01T06:15:32.793Z,20.05
2024-01-01T06:16:04.289Z,20.06
2024-01-01T06:16:35.834Z,20.05
2024-01-01T06:17:07.469Z,20.06
2024-01-01T06:17:39.291Z,20.08
2024-01-01T06:18:10.986Z,20.04
2024-01-01T06:18:42.768Z,20.06
2024-01-01T06:19:14.550Z,20.07
2024-01-01T06:19:46.173Z,20.08
2024-01-01T06:20:17.742Z,20.06
2024-01-01T06:20:49.241Z,20.08
2024-01-01T06:21:20.728Z,20.08
2024-01-01T06:21:52.269Z,20.10
2024-01-01T06:22:23.702Z,20.08
2024-01-01T06:22:55.254Z,20.09
2024-01-01T06:23:26.918Z,20.08
2024-01-01T06:23:58.550Z,20.10
2024-01-01T06:24:30.092Z,20.08
2024-01-01T06:25:01.654Z,20.09
2024-01-01T06:25:33.130Z,20.09
2024-01-01T06:26:04.682Z,20.07
2024-01-01T06:26:36.135Z,20.09
2024-01-01T06:27:07.685Z,20.09
2024-01-01T06:27:39.156Z,20.07
2024-01-01T06:28:10.762Z,20.04
2024-01-01T06:28:42.316Z,20.05
2024-01-01T06:29:13.901Z,20.02
2024-01-01T06:29:45.484Z,20.03
2024-01-01T06:30:16.966Z,20.04
2024-01-01T06:30:48.613Z,20.03
2024-01-01T06:31:20.160Z,20.03
2024-01-01T06:31:51.696Z,20.04
2024-01-01T06:32:23.193Z,20.05
2024-01-01T06:32:54.783Z,20.05
2024-01-01T06:33:26.452Z,20.04
2024-01-01T06:33:58.261Z,20.05
2024-01-01T06:34:29.781Z,20.03
2024-01-01T06:35:01.340Z,20.05
2024-01-01T06:35:32.794Z,20.04
2024-01-01T06:36:04.368Z,20.03
2024-01-01T06:36:35.808Z,20.04
2024-01-01T06:37:07.279Z,20.02
2024-01-01T06:37:38.743Z,20.05
2024-01-01T06:38:10.474Z,20.05
2024-01-01T06:38:42.147Z,20.05
2024-01-01T06:39:13.602Z,20.06
2024-01-01T06:39:45.065Z,20.06
2024-01-01T06:40:16.545Z,20.07
2024-01-01T06:40:48.055Z,20.07
2024-01-01T06:41:19.667Z,20.06
2024-01-01T06:41:51.174Z,20.08
2024-01-01T06:42:22.660Z,20.07
2024-01-01T06:42:54.168Z,20.06
2024-01-01T06:43:25.623Z,20.06
2024-01-01T06:43:57.088Z,20.06
2024-01-01T06:44:28.700Z,20.05
2024-01-01T06:45:00.216Z,20.04
2024-01-01T06:45:31.674Z,20.05
2024-01-01T06:46:03.155Z,20.04
2024-01-01T06:46:34.717Z,20.05
2024-01-01T06:47:06.184Z,20.05
2024-01-01T06:47:37.717Z,20.07
2024-01-01T06:48:09.704Z,20.06